This is the latest recevied weather packets stored in our database for station/object AE5TC. If no packets are shown the sender has not sent any weather packets the latest 1 day(s).
| Time | Temp. | Humidity | Pressure | Rain* | Wind** | Luminosity | Snow |
|---|---|---|---|---|---|---|---|
| 1778088902 | 27.22° C | 82% | 1016.2 hPa | 0 mm | - | 685 W/m² | - |
| 1778088296 | 27.22° C | 82% | 1016.4 hPa | 0 mm | - | 654 W/m² | - |
| 1778087387 | 27.22° C | 81% | 1016.1 hPa | 0 mm | - | 539 W/m² | - |
| 1778087083 | 27.22° C | 82% | 1016.2 hPa | 0 mm | - | 352 W/m² | - |
| 1778086170 | 26.67° C | 83% | 1016.1 hPa | 0 mm | - | 367 W/m² | - |
| 1778085867 | 26.67° C | 83% | 1016 hPa | 0 mm | - | 385 W/m² | - |
| 1778085254 | 26.67° C | 82% | 1015.7 hPa | 0 mm | - | 228 W/m² | - |
| 1778083425 | 26.67° C | 85% | 1016.2 hPa | 0 mm | - | 315 W/m² | - |
| 1778083123 | 26.67° C | 82% | 1015.8 hPa | 0 mm | - | 295 W/m² | - |
| 1778082818 | 27.22° C | 82% | 1016 hPa | 0 mm | - | 207 W/m² | - |
| 1778080178 | 26.67° C | 84% | 1015.4 hPa | 0 mm | - | 435 W/m² | - |
| 1778078360 | 26.11° C | 85% | 1015.4 hPa | 0 mm | - | 221 W/m² | - |
| 1778077453 | 25.56° C | 86% | 1015.3 hPa | 0 mm | - | 674 W/m² | - |
| 1778075940 | 23.89° C | 92% | 1014.9 hPa | 0 mm | - | 393 W/m² | - |
| 1778075333 | 24.44° C | 92% | 1014.9 hPa | 0 mm | - | 300 W/m² | - |
| 1778073515 | 24.44° C | 95% | 1014.5 hPa | 0 mm | - | 290 W/m² | - |
| 1778073211 | 24.44° C | 95% | 1014.4 hPa | 0 mm | - | 215 W/m² | - |
| 1778071699 | 22.78° C | 99% | 1014 hPa | 0 mm | - | 123 W/m² | - |
| 1778071093 | 22.22° C | 99% | 1013.9 hPa | 0 mm | - | 118 W/m² | - |
| 1778070488 | 22.22° C | 99% | 1014 hPa | 0 mm | - | 96 W/m² | - |
| 1778069277 | 21.67° C | 99% | 1013.8 hPa | 0 mm | - | 67 W/m² | - |
| 1778068975 | 21.11° C | 99% | 1013.6 hPa | 0 mm | - | 62 W/m² | - |
| 1778068672 | 21.11° C | 99% | 1013.7 hPa | 0 mm | - | 56 W/m² | - |
| 1778068370 | 20.56° C | 99% | 1013.6 hPa | 0 mm | - | 49 W/m² | - |
| 1778068068 | 19.44° C | 99% | 1013.5 hPa | 0 mm | - | 47 W/m² | - |
* Rain latest hour (hover to see other rain measurements)
** Current wind speed in m/s (hover to see current wind gust speed)